sensor_id;sensor_type;location;lat;lon;timestamp;temperature;humidity
22795;DHT22;11564;50.920;11.612;2023-09-19T00:00:37;15.10;99.90
22795;DHT22;11564;50.920;11.612;2023-09-19T00:03:03;15.00;99.90
22795;DHT22;11564;50.920;11.612;2023-09-19T00:05:34;15.00;99.90
22795;DHT22;11564;50.920;11.612;2023-09-19T00:08:00;14.90;99.90
22795;DHT22;11564;50.920;11.612;2023-09-19T00:10:26;14.90;99.90
22795;DHT22;11564;50.920;11.612;2023-09-19T00:12:52;14.80;99.90
22795;DHT22;11564;50.920;11.612;2023-09-19T00:15:21;14.80;99.90
22795;DHT22;11564;50.920;11.612;2023-09-19T00:17:46;14.70;99.90
22795;DHT22;11564;50.920;11.612;2023-09-19T00:20:13;14.70;99.90
22795;DHT22;11564;50.920;11.612;2023-09-19T00:22:40;14.70;99.90
22795;DHT22;11564;50.920;11.612;2023-09-19T00:25:07;14.60;99.90
22795;DHT22;11564;50.920;11.612;2023-09-19T00:27:32;14.70;99.90
22795;DHT22;11564;50.920;11.612;2023-09-19T00:30:01;14.70;99.90
22795;DHT22;11564;50.920;11.612;2023-09-19T00:32:26;14.70;99.90
22795;DHT22;11564;50.920;11.612;2023-09-19T00:34:57;14.70;99.90
22795;DHT22;11564;50.920;11.612;2023-09-19T00:37:23;14.70;99.90
22795;DHT22;11564;50.920;11.612;2023-09-19T00:39:48;14.70;99.90
22795;DHT22;11564;50.920;11.612;2023-09-19T00:42:20;14.70;99.90
22795;DHT22;11564;50.920;11.612;2023-09-19T00:44:46;14.70;99.90
22795;DHT22;11564;50.920;11.612;2023-09-19T00:47:12;14.70;99.90
22795;DHT22;11564;50.920;11.612;2023-09-19T00:49:43;14.60;99.90
22795;DHT22;11564;50.920;11.612;2023-09-19T00:52:08;14.50;99.90
22795;DHT22;11564;50.920;11.612;2023-09-19T00:54:35;14.50;99.90
22795;DHT22;11564;50.920;11.612;2023-09-19T00:57:01;14.40;99.90
22795;DHT22;11564;50.920;11.612;2023-09-19T00:59:27;14.40;99.90
22795;DHT22;11564;50.920;11.612;2023-09-19T01:01:53;14.40;99.90
22795;DHT22;11564;50.920;11.612;2023-09-19T01:04:20;14.30;99.90
22795;DHT22;11564;50.920;11.612;2023-09-19T01:06:45;14.30;99.90
22795;DHT22;11564;50.920;11.612;2023-09-19T01:09:11;14.20;99.90
22795;DHT22;11564;50.920;11.612;2023-09-19T01:11:40;14.20;99.90
22795;DHT22;11564;50.920;11.612;2023-09-19T01:14:53;14.20;99.90
22795;DHT22;11564;50.920;11.612;2023-09-19T01:17:00;14.10;99.90
22795;DHT22;11564;50.920;11.612;2023-09-19T01:29:46;14.70;99.90
22795;DHT22;11564;50.920;11.612;2023-09-19T01:32:19;14.80;99.90
22795;DHT22;11564;50.920;11.612;2023-09-19T01:37:18;14.60;99.90
22795;DHT22;11564;50.920;11.612;2023-09-19T01:39:58;14.50;99.90
22795;DHT22;11564;50.920;11.612;2023-09-19T01:42:44;14.70;99.90
22795;DHT22;11564;50.920;11.612;2023-09-19T01:47:52;14.80;99.90
22795;DHT22;11564;50.920;11.612;2023-09-19T01:50:25;15.00;99.90
22795;DHT22;11564;50.920;11.612;2023-09-19T01:52:57;14.90;99.90
22795;DHT22;11564;50.920;11.612;2023-09-19T01:55:22;14.80;99.90
22795;DHT22;11564;50.920;11.612;2023-09-19T01:58:04;15.10;99.90
22795;DHT22;11564;50.920;11.612;2023-09-19T02:00:32;15.30;99.90
22795;DHT22;11564;50.920;11.612;2023-09-19T02:02:59;15.20;99.90
22795;DHT22;11564;50.920;11.612;2023-09-19T02:05:25;15.10;99.90
22795;DHT22;11564;50.920;11.612;2023-09-19T02:07:54;15.40;99.90
22795;DHT22;11564;50.920;11.612;2023-09-19T02:10:21;15.50;99.90
22795;DHT22;11564;50.920;11.612;2023-09-19T02:12:47;15.50;99.90
22795;DHT22;11564;50.920;11.612;2023-09-19T02:15:12;15.40;99.90
22795;DHT22;11564;50.920;11.612;2023-09-19T02:17:38;15.50;99.90
22795;DHT22;11564;50.920;11.612;2023-09-19T02:20:03;15.50;99.90
22795;DHT22;11564;50.920;11.612;2023-09-19T02:22:36;15.50;99.90
22795;DHT22;11564;50.920;11.612;2023-09-19T02:25:02;15.50;99.90
22795;DHT22;11564;50.920;11.612;2023-09-19T02:27:30;15.60;99.90
22795;DHT22;11564;50.920;11.612;2023-09-19T02:29:56;15.70;99.90
22795;DHT22;11564;50.920;11.612;2023-09-19T02:32:22;15.60;99.90
22795;DHT22;11564;50.920;11.612;2023-09-19T02:34:48;15.50;99.90
22795;DHT22;11564;50.920;11.612;2023-09-19T02:37:14;15.30;99.90
22795;DHT22;11564;50.920;11.612;2023-09-19T02:39:41;15.30;99.90
22795;DHT22;11564;50.920;11.612;2023-09-19T02:42:07;15.20;99.90
22795;DHT22;11564;50.920;11.612;2023-09-19T02:44:32;15.10;99.90
22795;DHT22;11564;50.920;11.612;2023-09-19T02:46:59;15.00;99.90
22795;DHT22;11564;50.920;11.612;2023-09-19T02:49:24;15.10;99.90
22795;DHT22;11564;50.920;11.612;2023-09-19T02:51:50;15.10;99.90
22795;DHT22;11564;50.920;11.612;2023-09-19T02:54:17;15.50;99.90
22795;DHT22;11564;50.920;11.612;2023-09-19T02:56:43;15.40;99.90
22795;DHT22;11564;50.920;11.612;2023-09-19T02:59:08;15.40;99.90
22795;DHT22;11564;50.920;11.612;2023-09-19T03:01:35;15.30;99.90
22795;DHT22;11564;50.920;11.612;2023-09-19T03:04:02;15.30;99.90
22795;DHT22;11564;50.920;11.612;2023-09-19T03:06:28;15.20;99.90
22795;DHT22;11564;50.920;11.612;2023-09-19T03:08:56;15.20;99.90
22795;DHT22;11564;50.920;11.612;2023-09-19T03:11:22;15.10;99.90
22795;DHT22;11564;50.920;11.612;2023-09-19T03:13:54;15.20;99.90
22795;DHT22;11564;50.920;11.612;2023-09-19T03:16:20;15.20;99.90
22795;DHT22;11564;50.920;11.612;2023-09-19T03:18:47;15.10;99.90
22795;DHT22;11564;50.920;11.612;2023-09-19T03:21:14;15.10;99.90
22795;DHT22;11564;50.920;11.612;2023-09-19T03:23:40;15.20;99.90
22795;DHT22;11564;50.920;11.612;2023-09-19T03:26:06;15.30;99.90
22795;DHT22;11564;50.920;11.612;2023-09-19T03:28:33;15.40;99.90
22795;DHT22;11564;50.920;11.612;2023-09-19T03:31:02;15.50;99.90
22795;DHT22;11564;50.920;11.612;2023-09-19T03:33:28;15.50;99.90
22795;DHT22;11564;50.920;11.612;2023-09-19T03:35:54;15.50;99.90
22795;DHT22;11564;50.920;11.612;2023-09-19T03:38:20;15.50;99.90
22795;DHT22;11564;50.920;11.612;2023-09-19T03:40:47;15.40;99.90
22795;DHT22;11564;50.920;11.612;2023-09-19T03:43:13;15.40;99.90
22795;DHT22;11564;50.920;11.612;2023-09-19T03:45:38;15.30;99.90
22795;DHT22;11564;50.920;11.612;2023-09-19T03:48:10;15.40;99.90
22795;DHT22;11564;50.920;11.612;2023-09-19T03:50:36;15.30;99.90
22795;DHT22;11564;50.920;11.612;2023-09-19T03:53:01;15.10;99.90
22795;DHT22;11564;50.920;11.612;2023-09-19T03:55:27;15.00;99.90
22795;DHT22;11564;50.920;11.612;2023-09-19T03:57:53;14.90;99.90
22795;DHT22;11564;50.920;11.612;2023-09-19T04:00:19;15.20;99.90
22795;DHT22;11564;50.920;11.612;2023-09-19T04:02:51;15.40;99.90
22795;DHT22;11564;50.920;11.612;2023-09-19T04:05:17;15.60;99.90
22795;DHT22;11564;50.920;11.612;2023-09-19T04:07:42;15.50;99.90
22795;DHT22;11564;50.920;11.612;2023-09-19T04:10:08;15.40;99.90
22795;DHT22;11564;50.920;11.612;2023-09-19T04:12:35;15.30;99.90
22795;DHT22;11564;50.920;11.612;2023-09-19T04:15:01;15.20;99.90
22795;DHT22;11564;50.920;11.612;2023-09-19T04:17:26;15.00;99.90
22795;DHT22;11564;50.920;11.612;2023-09-19T04:19:51;14.80;99.90
22795;DHT22;11564;50.920;11.612;2023-09-19T04:22:17;14.70;99.90
22795;DHT22;11564;50.920;11.612;2023-09-19T04:24:43;14.70;99.90
22795;DHT22;11564;50.920;11.612;2023-09-19T04:27:09;14.70;99.90
22795;DHT22;11564;50.920;11.612;2023-09-19T04:29:35;14.80;99.90
22795;DHT22;11564;50.920;11.612;2023-09-19T04:32:00;14.80;99.90
22795;DHT22;11564;50.920;11.612;2023-09-19T04:34:26;14.70;99.90
22795;DHT22;11564;50.920;11.612;2023-09-19T04:36:52;14.60;99.90
22795;DHT22;11564;50.920;11.612;2023-09-19T04:39:18;14.70;99.90
22795;DHT22;11564;50.920;11.612;2023-09-19T04:41:43;14.80;99.90
22795;DHT22;11564;50.920;11.612;2023-09-19T04:44:10;14.70;99.90
22795;DHT22;11564;50.920;11.612;2023-09-19T04:46:35;14.60;99.90
22795;DHT22;11564;50.920;11.612;2023-09-19T04:49:01;14.60;99.90
22795;DHT22;11564;50.920;11.612;2023-09-19T04:51:27;14.70;99.90
22795;DHT22;11564;50.920;11.612;2023-09-19T04:53:58;14.70;99.90
22795;DHT22;11564;50.920;11.612;2023-09-19T04:56:23;14.60;99.90
22795;DHT22;11564;50.920;11.612;2023-09-19T04:58:49;14.70;99.90
22795;DHT22;11564;50.920;11.612;2023-09-19T05:01:15;14.70;99.90
22795;DHT22;11564;50.920;11.612;2023-09-19T05:03:40;14.70;99.90
22795;DHT22;11564;50.920;11.612;2023-09-19T05:06:06;14.70;99.90
22795;DHT22;11564;50.920;11.612;2023-09-19T05:08:32;14.80;99.90
22795;DHT22;11564;50.920;11.612;2023-09-19T05:10:58;14.80;99.90
22795;DHT22;11564;50.920;11.612;2023-09-19T05:13:23;14.80;99.90
22795;DHT22;11564;50.920;11.612;2023-09-19T05:15:49;14.70;99.90
22795;DHT22;11564;50.920;11.612;2023-09-19T05:18:17;14.70;99.90
22795;DHT22;11564;50.920;11.612;2023-09-19T05:20:43;14.70;99.90
22795;DHT22;11564;50.920;11.612;2023-09-19T05:23:09;14.60;99.90
22795;DHT22;11564;50.920;11.612;2023-09-19T05:25:37;14.50;99.90
22795;DHT22;11564;50.920;11.612;2023-09-19T05:28:03;14.40;99.90
22795;DHT22;11564;50.920;11.612;2023-09-19T05:30:29;14.30;99.90
22795;DHT22;11564;50.920;11.612;2023-09-19T05:32:54;14.20;99.90
22795;DHT22;11564;50.920;11.612;2023-09-19T05:35:21;14.20;99.90
22795;DHT22;11564;50.920;11.612;2023-09-19T05:37:47;14.10;99.90
22795;DHT22;11564;50.920;11.612;2023-09-19T05:40:16;14.10;99.90
22795;DHT22;11564;50.920;11.612;2023-09-19T05:42:42;14.10;99.90
22795;DHT22;11564;50.920;11.612;2023-09-19T05:45:09;14.10;99.90
22795;DHT22;11564;50.920;11.612;2023-09-19T05:47:37;14.00;99.90
22795;DHT22;11564;50.920;11.612;2023-09-19T05:50:03;14.00;99.90
22795;DHT22;11564;50.920;11.612;2023-09-19T05:52:30;14.20;99.90
22795;DHT22;11564;50.920;11.612;2023-09-19T05:54:55;14.20;99.90
22795;DHT22;11564;50.920;11.612;2023-09-19T05:57:21;14.20;99.90
22795;DHT22;11564;50.920;11.612;2023-09-19T05:59:47;14.30;99.90
22795;DHT22;11564;50.920;11.612;2023-09-19T06:02:15;14.30;99.90
22795;DHT22;11564;50.920;11.612;2023-09-19T06:04:41;14.40;99.90
22795;DHT22;11564;50.920;11.612;2023-09-19T06:07:06;14.60;99.90
22795;DHT22;11564;50.920;11.612;2023-09-19T06:09:32;14.70;99.90
22795;DHT22;11564;50.920;11.612;2023-09-19T06:11:59;15.10;99.90
22795;DHT22;11564;50.920;11.612;2023-09-19T06:14:28;15.30;99.90
22795;DHT22;11564;50.920;11.612;2023-09-19T06:16:54;15.60;99.90
22795;DHT22;11564;50.920;11.612;2023-09-19T06:19:19;16.00;99.90
22795;DHT22;11564;50.920;11.612;2023-09-19T06:21:48;16.40;99.90
22795;DHT22;11564;50.920;11.612;2023-09-19T06:24:14;16.50;99.90
22795;DHT22;11564;50.920;11.612;2023-09-19T06:26:40;16.70;99.90
22795;DHT22;11564;50.920;11.612;2023-09-19T06:29:05;16.80;99.90
22795;DHT22;11564;50.920;11.612;2023-09-19T06:31:33;16.90;99.90
22795;DHT22;11564;50.920;11.612;2023-09-19T06:33:58;16.90;99.90
22795;DHT22;11564;50.920;11.612;2023-09-19T06:36:24;17.10;99.90
22795;DHT22;11564;50.920;11.612;2023-09-19T06:38:49;17.10;99.90
22795;DHT22;11564;50.920;11.612;2023-09-19T06:41:17;17.20;99.90
22795;DHT22;11564;50.920;11.612;2023-09-19T06:43:42;17.20;99.90
22795;DHT22;11564;50.920;11.612;2023-09-19T06:46:09;17.20;99.90
22795;DHT22;11564;50.920;11.612;2023-09-19T06:48:35;17.20;99.90
22795;DHT22;11564;50.920;11.612;2023-09-19T06:51:00;17.20;99.90
22795;DHT22;11564;50.920;11.612;2023-09-19T06:53:27;17.20;99.90
22795;DHT22;11564;50.920;11.612;2023-09-19T06:55:52;17.40;99.90
22795;DHT22;11564;50.920;11.612;2023-09-19T06:58:18;17.30;99.90
22795;DHT22;11564;50.920;11.612;2023-09-19T07:00:45;17.30;99.90
22795;DHT22;11564;50.920;11.612;2023-09-19T07:03:12;17.30;99.90
22795;DHT22;11564;50.920;11.612;2023-09-19T07:05:39;17.40;99.90
22795;DHT22;11564;50.920;11.612;2023-09-19T07:08:06;17.50;99.90
22795;DHT22;11564;50.920;11.612;2023-09-19T07:10:32;17.60;99.90
22795;DHT22;11564;50.920;11.612;2023-09-19T07:12:59;17.60;99.90
22795;DHT22;11564;50.920;11.612;2023-09-19T07:15:25;17.60;99.90
22795;DHT22;11564;50.920;11.612;2023-09-19T07:17:51;17.70;99.90
22795;DHT22;11564;50.920;11.612;2023-09-19T07:20:18;17.80;99.90
22795;DHT22;11564;50.920;11.612;2023-09-19T07:22:44;17.90;99.90
22795;DHT22;11564;50.920;11.612;2023-09-19T07:25:09;18.20;99.90
22795;DHT22;11564;50.920;11.612;2023-09-19T07:27:35;18.30;99.90
22795;DHT22;11564;50.920;11.612;2023-09-19T07:30:00;18.20;99.90
22795;DHT22;11564;50.920;11.612;2023-09-19T07:32:26;18.30;99.90
22795;DHT22;11564;50.920;11.612;2023-09-19T07:34:51;18.30;99.90
22795;DHT22;11564;50.920;11.612;2023-09-19T07:37:17;18.40;99.90
22795;DHT22;11564;50.920;11.612;2023-09-19T07:39:42;18.50;99.90
22795;DHT22;11564;50.920;11.612;2023-09-19T07:42:10;18.50;99.90
22795;DHT22;11564;50.920;11.612;2023-09-19T07:44:36;18.40;99.90
22795;DHT22;11564;50.920;11.612;2023-09-19T07:47:02;18.30;99.90
22795;DHT22;11564;50.920;11.612;2023-09-19T07:49:28;18.20;99.90
22795;DHT22;11564;50.920;11.612;2023-09-19T07:51:54;18.20;99.90
22795;DHT22;11564;50.920;11.612;2023-09-19T07:54:20;18.20;99.90
22795;DHT22;11564;50.920;11.612;2023-09-19T07:56:46;18.20;99.90
22795;DHT22;11564;50.920;11.612;2023-09-19T07:59:12;18.20;99.90
22795;DHT22;11564;50.920;11.612;2023-09-19T08:01:39;18.30;99.90
22795;DHT22;11564;50.920;11.612;2023-09-19T08:04:05;18.40;99.90
22795;DHT22;11564;50.920;11.612;2023-09-19T08:06:30;18.50;99.90
22795;DHT22;11564;50.920;11.612;2023-09-19T08:08:56;18.50;99.90
22795;DHT22;11564;50.920;11.612;2023-09-19T08:11:22;18.40;99.90
22795;DHT22;11564;50.920;11.612;2023-09-19T08:13:49;18.50;99.90
22795;DHT22;11564;50.920;11.612;2023-09-19T08:16:15;18.50;99.90
22795;DHT22;11564;50.920;11.612;2023-09-19T08:18:41;18.60;99.90
22795;DHT22;11564;50.920;11.612;2023-09-19T08:21:07;18.70;99.90
22795;DHT22;11564;50.920;11.612;2023-09-19T08:23:36;18.60;99.90
22795;DHT22;11564;50.920;11.612;2023-09-19T08:26:01;18.80;99.90
22795;DHT22;11564;50.920;11.612;2023-09-19T08:28:33;18.90;99.90
22795;DHT22;11564;50.920;11.612;2023-09-19T08:31:02;18.80;99.90
22795;DHT22;11564;50.920;11.612;2023-09-19T08:33:31;18.60;99.90
22795;DHT22;11564;50.920;11.612;2023-09-19T08:35:56;18.40;99.90
22795;DHT22;11564;50.920;11.612;2023-09-19T08:38:22;18.60;99.90
22795;DHT22;11564;50.920;11.612;2023-09-19T08:40:47;18.70;99.90
22795;DHT22;11564;50.920;11.612;2023-09-19T08:43:13;18.80;99.90
22795;DHT22;11564;50.920;11.612;2023-09-19T08:45:39;18.80;99.90
22795;DHT22;11564;50.920;11.612;2023-09-19T08:50:31;18.70;99.90
22795;DHT22;11564;50.920;11.612;2023-09-19T08:53:01;18.70;99.90
22795;DHT22;11564;50.920;11.612;2023-09-19T08:55:32;18.70;99.90
22795;DHT22;11564;50.920;11.612;2023-09-19T08:58:00;18.80;99.90
22795;DHT22;11564;50.920;11.612;2023-09-19T09:00:27;18.80;99.90
22795;DHT22;11564;50.920;11.612;2023-09-19T09:02:53;19.00;99.90
22795;DHT22;11564;50.920;11.612;2023-09-19T09:05:19;19.10;99.90
22795;DHT22;11564;50.920;11.612;2023-09-19T09:07:48;19.30;99.90
22795;DHT22;11564;50.920;11.612;2023-09-19T09:10:17;19.30;99.90
22795;DHT22;11564;50.920;11.612;2023-09-19T09:12:43;19.30;99.90
22795;DHT22;11564;50.920;11.612;2023-09-19T09:15:09;19.40;99.90
22795;DHT22;11564;50.920;11.612;2023-09-19T09:17:37;19.30;99.90
22795;DHT22;11564;50.920;11.612;2023-09-19T09:20:02;19.10;99.90
22795;DHT22;11564;50.920;11.612;2023-09-19T09:22:30;19.10;99.90
22795;DHT22;11564;50.920;11.612;2023-09-19T09:24:57;19.20;99.90
22795;DHT22;11564;50.920;11.612;2023-09-19T09:27:31;19.00;99.90
22795;DHT22;11564;50.920;11.612;2023-09-19T09:29:59;19.10;99.90
22795;DHT22;11564;50.920;11.612;2023-09-19T09:32:29;19.00;99.90
22795;DHT22;11564;50.920;11.612;2023-09-19T09:34:56;19.20;99.90
22795;DHT22;11564;50.920;11.612;2023-09-19T09:37:22;19.30;99.90
22795;DHT22;11564;50.920;11.612;2023-09-19T09:39:54;19.30;99.90
22795;DHT22;11564;50.920;11.612;2023-09-19T09:42:28;19.40;99.90
22795;DHT22;11564;50.920;11.612;2023-09-19T09:45:16;19.40;99.90
22795;DHT22;11564;50.920;11.612;2023-09-19T09:50:23;19.70;99.90
22795;DHT22;11564;50.920;11.612;2023-09-19T09:52:54;19.80;99.90
22795;DHT22;11564;50.920;11.612;2023-09-19T09:55:26;19.80;99.90
22795;DHT22;11564;50.920;11.612;2023-09-19T09:58:37;19.50;99.90
22795;DHT22;11564;50.920;11.612;2023-09-19T10:00:51;19.40;99.90
22795;DHT22;11564;50.920;11.612;2023-09-19T10:03:21;19.60;99.90
22795;DHT22;11564;50.920;11.612;2023-09-19T10:05:52;19.90;99.90
22795;DHT22;11564;50.920;11.612;2023-09-19T10:08:20;20.10;99.90
22795;DHT22;11564;50.920;11.612;2023-09-19T10:10:46;20.30;99.90
22795;DHT22;11564;50.920;11.612;2023-09-19T10:13:17;20.40;99.90
22795;DHT22;11564;50.920;11.612;2023-09-19T10:15:50;20.40;99.90
22795;DHT22;11564;50.920;11.612;2023-09-19T10:18:23;20.40;99.90
22795;DHT22;11564;50.920;11.612;2023-09-19T10:20:49;20.40;99.90
22795;DHT22;11564;50.920;11.612;2023-09-19T10:23:19;20.40;99.90
22795;DHT22;11564;50.920;11.612;2023-09-19T10:25:52;20.40;99.90
22795;DHT22;11564;50.920;11.612;2023-09-19T10:28:18;20.60;99.90
22795;DHT22;11564;50.920;11.612;2023-09-19T10:30:47;20.50;99.90
22795;DHT22;11564;50.920;11.612;2023-09-19T10:33:15;20.20;99.90
22795;DHT22;11564;50.920;11.612;2023-09-19T10:35:45;20.40;99.90
22795;DHT22;11564;50.920;11.612;2023-09-19T10:38:11;20.10;99.90
22795;DHT22;11564;50.920;11.612;2023-09-19T10:40:37;20.20;99.90
22795;DHT22;11564;50.920;11.612;2023-09-19T10:43:10;20.20;99.90
22795;DHT22;11564;50.920;11.612;2023-09-19T10:45:36;20.30;99.90
22795;DHT22;11564;50.920;11.612;2023-09-19T10:48:05;20.30;99.90
22795;DHT22;11564;50.920;11.612;2023-09-19T10:50:36;20.40;99.90
22795;DHT22;11564;50.920;11.612;2023-09-19T10:53:07;20.90;99.90
22795;DHT22;11564;50.920;11.612;2023-09-19T10:55:33;20.90;99.90
22795;DHT22;11564;50.920;11.612;2023-09-19T10:58:00;21.00;99.90
22795;DHT22;11564;50.920;11.612;2023-09-19T11:00:26;20.90;99.90
22795;DHT22;11564;50.920;11.612;2023-09-19T11:05:42;20.90;99.90
22795;DHT22;11564;50.920;11.612;2023-09-19T11:08:08;20.80;99.90
22795;DHT22;11564;50.920;11.612;2023-09-19T11:10:44;20.90;99.90
22795;DHT22;11564;50.920;11.612;2023-09-19T11:16:02;20.70;99.90
22795;DHT22;11564;50.920;11.612;2023-09-19T11:24:53;20.80;99.90
22795;DHT22;11564;50.920;11.612;2023-09-19T11:26:48;21.00;99.90
22795;DHT22;11564;50.920;11.612;2023-09-19T11:29:26;20.90;99.90
22795;DHT22;11564;50.920;11.612;2023-09-19T11:31:52;21.10;99.90
22795;DHT22;11564;50.920;11.612;2023-09-19T11:40:06;21.20;99.90
22795;DHT22;11564;50.920;11.612;2023-09-19T11:45:06;21.30;99.90
22795;DHT22;11564;50.920;11.612;2023-09-19T11:47:32;21.30;99.90
22795;DHT22;11564;50.920;11.612;2023-09-19T11:49:57;21.30;99.90
22795;DHT22;11564;50.920;11.612;2023-09-19T11:52:27;21.20;99.90
22795;DHT22;11564;50.920;11.612;2023-09-19T11:54:55;21.50;99.90
22795;DHT22;11564;50.920;11.612;2023-09-19T11:57:22;21.60;99.90
22795;DHT22;11564;50.920;11.612;2023-09-19T11:59:47;21.60;99.90
22795;DHT22;11564;50.920;11.612;2023-09-19T12:02:14;21.60;99.90
22795;DHT22;11564;50.920;11.612;2023-09-19T12:04:44;21.80;99.90
22795;DHT22;11564;50.920;11.612;2023-09-19T12:07:15;22.20;99.90
22795;DHT22;11564;50.920;11.612;2023-09-19T12:09:48;22.30;99.90
22795;DHT22;11564;50.920;11.612;2023-09-19T12:12:25;21.90;99.90
22795;DHT22;11564;50.920;11.612;2023-09-19T12:14:55;21.70;99.90
22795;DHT22;11564;50.920;11.612;2023-09-19T12:17:39;22.00;99.90
22795;DHT22;11564;50.920;11.612;2023-09-19T12:20:06;23.00;99.90
22795;DHT22;11564;50.920;11.612;2023-09-19T12:22:42;22.60;99.90
22795;DHT22;11564;50.920;11.612;2023-09-19T12:25:09;22.40;99.90
22795;DHT22;11564;50.920;11.612;2023-09-19T12:27:42;22.00;99.90
22795;DHT22;11564;50.920;11.612;2023-09-19T12:30:09;22.60;99.90
22795;DHT22;11564;50.920;11.612;2023-09-19T12:32:35;24.20;99.90
22795;DHT22;11564;50.920;11.612;2023-09-19T12:35:01;24.80;99.90
22795;DHT22;11564;50.920;11.612;2023-09-19T12:37:32;25.20;99.90
22795;DHT22;11564;50.920;11.612;2023-09-19T12:40:05;23.50;99.90
22795;DHT22;11564;50.920;11.612;2023-09-19T12:42:42;22.60;99.90
22795;DHT22;11564;50.920;11.612;2023-09-19T12:45:08;22.10;99.90
22795;DHT22;11564;50.920;11.612;2023-09-19T12:47:39;22.00;99.90
22795;DHT22;11564;50.920;11.612;2023-09-19T12:50:06;21.50;99.90
22795;DHT22;11564;50.920;11.612;2023-09-19T12:52:36;21.80;99.90
22795;DHT22;11564;50.920;11.612;2023-09-19T12:55:01;24.20;99.90
22795;DHT22;11564;50.920;11.612;2023-09-19T12:57:28;26.90;99.90
22795;DHT22;11564;50.920;11.612;2023-09-19T12:59:53;25.50;99.90
22795;DHT22;11564;50.920;11.612;2023-09-19T13:02:20;24.30;99.90
22795;DHT22;11564;50.920;11.612;2023-09-19T13:04:52;23.00;99.90
22795;DHT22;11564;50.920;11.612;2023-09-19T13:10:03;25.80;99.90
22795;DHT22;11564;50.920;11.612;2023-09-19T13:12:34;25.00;99.90
22795;DHT22;11564;50.920;11.612;2023-09-19T13:15:08;24.10;99.90
22795;DHT22;11564;50.920;11.612;2023-09-19T13:17:45;24.60;99.90
22795;DHT22;11564;50.920;11.612;2023-09-19T13:20:23;25.00;99.90
22795;DHT22;11564;50.920;11.612;2023-09-19T13:22:57;26.50;99.90
22795;DHT22;11564;50.920;11.612;2023-09-19T13:25:35;24.70;99.90
22795;DHT22;11564;50.920;11.612;2023-09-19T13:28:01;23.30;99.90
22795;DHT22;11564;50.920;11.612;2023-09-19T13:30:29;22.60;99.90
22795;DHT22;11564;50.920;11.612;2023-09-19T13:33:06;22.80;99.90
22795;DHT22;11564;50.920;11.612;2023-09-19T13:35:32;22.50;99.90
22795;DHT22;11564;50.920;11.612;2023-09-19T13:37:58;24.30;99.90
22795;DHT22;11564;50.920;11.612;2023-09-19T13:40:24;23.70;99.90
22795;DHT22;11564;50.920;11.612;2023-09-19T13:43:00;22.50;99.90
22795;DHT22;11564;50.920;11.612;2023-09-19T13:45:26;22.00;99.90
22795;DHT22;11564;50.920;11.612;2023-09-19T13:47:52;21.60;99.90
22795;DHT22;11564;50.920;11.612;2023-09-19T13:50:19;21.70;99.90
22795;DHT22;11564;50.920;11.612;2023-09-19T13:52:49;22.20;99.90
22795;DHT22;11564;50.920;11.612;2023-09-19T13:55:16;23.70;99.90
22795;DHT22;11564;50.920;11.612;2023-09-19T13:57:46;26.00;99.90
22795;DHT22;11564;50.920;11.612;2023-09-19T14:00:12;27.40;99.90
22795;DHT22;11564;50.920;11.612;2023-09-19T14:02:41;25.30;99.90
22795;DHT22;11564;50.920;11.612;2023-09-19T14:05:09;26.60;99.90
22795;DHT22;11564;50.920;11.612;2023-09-19T14:07:37;28.70;99.90
22795;DHT22;11564;50.920;11.612;2023-09-19T14:10:03;29.90;99.90
22795;DHT22;11564;50.920;11.612;2023-09-19T14:12:29;30.60;97.40
22795;DHT22;11564;50.920;11.612;2023-09-19T14:14:55;31.70;95.10
22795;DHT22;11564;50.920;11.612;2023-09-19T14:17:21;31.90;93.50
22795;DHT22;11564;50.920;11.612;2023-09-19T14:19:47;32.30;92.10
22795;DHT22;11564;50.920;11.612;2023-09-19T14:22:12;32.00;91.00
22795;DHT22;11564;50.920;11.612;2023-09-19T14:24:39;30.40;91.00
22795;DHT22;11564;50.920;11.612;2023-09-19T14:27:06;28.10;92.50
22795;DHT22;11564;50.920;11.612;2023-09-19T14:29:34;29.10;92.70
22795;DHT22;11564;50.920;11.612;2023-09-19T14:31:59;29.80;91.70
22795;DHT22;11564;50.920;11.612;2023-09-19T14:34:25;30.90;90.60
22795;DHT22;11564;50.920;11.612;2023-09-19T14:36:50;30.50;89.50
22795;DHT22;11564;50.920;11.612;2023-09-19T14:39:16;30.30;88.70
22795;DHT22;11564;50.920;11.612;2023-09-19T14:41:41;31.40;90.30
22795;DHT22;11564;50.920;11.612;2023-09-19T14:44:07;29.50;87.80
22795;DHT22;11564;50.920;11.612;2023-09-19T14:46:32;29.40;89.60
22795;DHT22;11564;50.920;11.612;2023-09-19T14:48:58;28.60;90.20
22795;DHT22;11564;50.920;11.612;2023-09-19T14:51:29;28.90;89.70
22795;DHT22;11564;50.920;11.612;2023-09-19T14:53:54;28.80;87.90
22795;DHT22;11564;50.920;11.612;2023-09-19T14:56:20;29.10;88.80
22795;DHT22;11564;50.920;11.612;2023-09-19T14:58:46;29.00;88.00
22795;DHT22;11564;50.920;11.612;2023-09-19T15:01:12;28.30;89.10
22795;DHT22;11564;50.920;11.612;2023-09-19T15:03:39;29.10;88.40
22795;DHT22;11564;50.920;11.612;2023-09-19T15:06:06;29.40;86.20
22795;DHT22;11564;50.920;11.612;2023-09-19T15:08:32;29.00;88.20
22795;DHT22;11564;50.920;11.612;2023-09-19T15:11:00;29.70;88.60
22795;DHT22;11564;50.920;11.612;2023-09-19T15:13:29;28.80;87.20
22795;DHT22;11564;50.920;11.612;2023-09-19T15:16:01;29.50;87.00
22795;DHT22;11564;50.920;11.612;2023-09-19T15:18:30;29.60;84.70
22795;DHT22;11564;50.920;11.612;2023-09-19T15:20:56;30.90;84.90
22795;DHT22;11564;50.920;11.612;2023-09-19T15:23:22;30.90;83.10
22795;DHT22;11564;50.920;11.612;2023-09-19T15:25:51;32.10;82.10
22795;DHT22;11564;50.920;11.612;2023-09-19T15:28:17;31.10;81.00
22795;DHT22;11564;50.920;11.612;2023-09-19T15:30:43;30.00;81.70
22795;DHT22;11564;50.920;11.612;2023-09-19T15:33:08;28.70;82.50
22795;DHT22;11564;50.920;11.612;2023-09-19T15:35:34;28.90;84.80
22795;DHT22;11564;50.920;11.612;2023-09-19T15:38:02;28.70;84.20
22795;DHT22;11564;50.920;11.612;2023-09-19T15:40:28;28.00;83.20
22795;DHT22;11564;50.920;11.612;2023-09-19T15:42:54;26.70;84.90
22795;DHT22;11564;50.920;11.612;2023-09-19T15:45:21;25.20;86.00
22795;DHT22;11564;50.920;11.612;2023-09-19T15:47:47;23.90;88.90
22795;DHT22;11564;50.920;11.612;2023-09-19T15:50:12;23.90;90.00
22795;DHT22;11564;50.920;11.612;2023-09-19T15:52:41;22.90;90.50
22795;DHT22;11564;50.920;11.612;2023-09-19T15:55:07;22.50;91.10
22795;DHT22;11564;50.920;11.612;2023-09-19T15:57:36;22.20;92.40
22795;DHT22;11564;50.920;11.612;2023-09-19T16:00:02;22.10;92.90